Time;durP1;ratioP1;P1;durP2;ratioP2;P2;SDS_P1;SDS_P2;PMS_P1;PMS_P2;Temp;Humidity;BMP_temperature;BMP_pressure;BME280_temperature;BME280_humidity;BME280_pressure;Samples;Min_cycle;Max_cycle;Signal;HPM_P1;HPM_P2
2023/10/03 00:01:43;;;;;;;23.23;11.47;;;;;;;;;;5051006;28;20986;-77
2023/10/03 00:04:10;;;;;;;19.60;11.17;;;;;;;;;;5050905;28;20455;-77
2023/10/03 00:06:38;;;;;;;19.73;11.30;;;;;;;;;;5050587;28;20457;-77
2023/10/03 00:09:08;;;;;;;20.67;12.07;;;;;;;;;;5050664;28;20954;-77
2023/10/03 00:11:37;;;;;;;28.20;13.20;;;;;;;;;;5050686;28;20461;-77
2023/10/03 00:14:07;;;;;;;20.80;11.43;;;;;;;;;;5050123;28;20449;-76
2023/10/03 00:16:34;;;;;;;21.47;11.63;;;;;;;;;;5049973;28;20449;-76
2023/10/03 00:19:02;;;;;;;24.30;10.97;;;;;;;;;;5049913;28;20496;-76
2023/10/03 00:21:29;;;;;;;27.47;12.40;;;;;;;;;;5050291;28;21050;-77
2023/10/03 00:23:56;;;;;;;26.30;12.60;;;;;;;;;;5050389;28;20460;-76
2023/10/03 00:26:24;;;;;;;26.40;12.63;;;;;;;;;;5049849;28;20452;-76
2023/10/03 00:28:53;;;;;;;26.07;11.93;;;;;;;;;;5050017;28;20966;-76
2023/10/03 00:31:20;;;;;;;26.67;11.93;;;;;;;;;;5049913;28;20472;-76
2023/10/03 00:33:47;;;;;;;23.50;11.87;;;;;;;;;;5049952;28;20444;-76
2023/10/03 00:36:17;;;;;;;18.03;10.93;;;;;;;;;;5049987;28;20811;-76
2023/10/03 00:38:45;;;;;;;22.87;11.93;;;;;;;;;;5049959;28;20534;-76
2023/10/03 00:41:13;;;;;;;22.57;11.97;;;;;;;;;;5049885;28;20476;-76
2023/10/03 00:43:53;;;;;;;33.10;10.90;;;;;;;;;;5049909;28;20456;-76
2023/10/03 00:46:21;;;;;;;27.30;13.00;;;;;;;;;;5052743;28;20421;-77
2023/10/03 00:48:48;;;;;;;19.07;10.20;;;;;;;;;;5053687;28;20563;-77
2023/10/03 00:51:16;;;;;;;27.33;13.40;;;;;;;;;;5055539;28;20536;-77
2023/10/03 00:53:44;;;;;;;22.20;12.57;;;;;;;;;;5055180;28;20942;-78
2023/10/03 00:56:11;;;;;;;30.03;12.60;;;;;;;;;;5052879;28;20453;-78
2023/10/03 00:58:41;;;;;;;29.33;16.23;;;;;;;;;;5040596;28;20846;-78
2023/10/03 01:01:11;;;;;;;23.80;12.20;;;;;;;;;;5054506;27;20477;-78
2023/10/03 01:03:39;;;;;;;22.03;12.10;;;;;;;;;;5054672;28;20444;-78
2023/10/03 01:06:08;;;;;;;27.80;13.00;;;;;;;;;;5054863;28;20824;-77
2023/10/03 01:08:36;;;;;;;16.97;11.13;;;;;;;;;;5054424;28;20468;-78
2023/10/03 01:11:04;;;;;;;23.87;12.80;;;;;;;;;;5055174;28;20989;-78
2023/10/03 01:13:32;;;;;;;38.83;14.00;;;;;;;;;;5054680;28;20453;-78
2023/10/03 01:15:59;;;;;;;24.50;14.23;;;;;;;;;;5054772;28;20448;-78
2023/10/03 01:18:31;;;;;;;26.00;14.07;;;;;;;;;;5054294;27;20461;-77
2023/10/03 01:21:00;;;;;;;29.63;15.57;;;;;;;;;;5053844;28;20473;-77
2023/10/03 01:23:33;;;;;;;26.77;12.90;;;;;;;;;;5054214;28;20943;-77
2023/10/03 01:26:00;;;;;;;27.00;13.70;;;;;;;;;;5045419;28;20533;-78
2023/10/03 01:28:27;;;;;;;21.57;12.70;;;;;;;;;;5034663;28;20450;-77
2023/10/03 01:30:54;;;;;;;24.90;13.67;;;;;;;;;;5034132;28;20479;-77
2023/10/03 01:33:26;;;;;;;28.20;14.07;;;;;;;;;;5083404;28;20446;-77
2023/10/03 01:35:55;;;;;;;24.13;13.10;;;;;;;;;;5119721;28;20842;-78
2023/10/03 01:38:25;;;;;;;31.50;13.53;;;;;;;;;;5129710;28;20445;-76
2023/10/03 01:40:54;;;;;;;25.63;12.67;;;;;;;;;;5062611;28;20493;-78
2023/10/03 01:43:21;;;;;;;27.80;13.90;;;;;;;;;;5034740;28;20450;-76
2023/10/03 01:45:49;;;;;;;29.30;14.00;;;;;;;;;;5036717;28;20486;-77
2023/10/03 01:48:17;;;;;;;27.50;14.20;;;;;;;;;;5034880;28;20491;-77
2023/10/03 01:50:45;;;;;;;24.43;12.33;;;;;;;;;;5033594;28;20478;-77
2023/10/03 01:53:12;;;;;;;25.43;13.10;;;;;;;;;;5033715;28;20446;-77
2023/10/03 01:55:40;;;;;;;22.90;13.00;;;;;;;;;;5034155;28;20446;-77
2023/10/03 01:58:08;;;;;;;21.10;10.60;;;;;;;;;;5034108;28;20450;-77
2023/10/03 02:00:36;;;;;;;24.73;11.37;;;;;;;;;;5034852;28;20494;-77
2023/10/03 02:03:07;;;;;;;21.23;11.13;;;;;;;;;;5035214;28;20446;-77
2023/10/03 02:05:36;;;;;;;16.07;9.40;;;;;;;;;;5034679;28;20461;-78
2023/10/03 02:08:07;;;;;;;28.93;12.30;;;;;;;;;;5034610;28;20839;-78
2023/10/03 02:10:35;;;;;;;19.13;10.83;;;;;;;;;;5034373;28;20472;-78
2023/10/03 02:13:08;;;;;;;26.07;11.70;;;;;;;;;;5034233;28;20442;-78
2023/10/03 02:15:38;;;;;;;21.90;11.30;;;;;;;;;;5034850;28;20430;-78
2023/10/03 02:18:07;;;;;;;21.43;10.00;;;;;;;;;;5035557;28;20458;-78
2023/10/03 02:20:47;;;;;;;21.03;9.87;;;;;;;;;;5049152;28;20522;-78
2023/10/03 02:23:17;;;;;;;23.13;11.87;;;;;;;;;;5034472;28;20454;-78
2023/10/03 02:25:45;;;;;;;17.10;9.63;;;;;;;;;;5034352;28;20925;-78
2023/10/03 02:28:14;;;;;;;23.43;12.27;;;;;;;;;;5033962;28;20808;-78
2023/10/03 02:30:43;;;;;;;18.80;11.70;;;;;;;;;;5034590;28;20880;-78
2023/10/03 02:33:12;;;;;;;24.53;11.27;;;;;;;;;;5034606;28;20462;-78
2023/10/03 02:35:40;;;;;;;18.87;10.30;;;;;;;;;;5034686;28;20541;-78
2023/10/03 02:38:12;;;;;;;18.60;9.70;;;;;;;;;;5034239;28;20578;-77
2023/10/03 02:40:40;;;;;;;23.87;11.23;;;;;;;;;;5033918;28;20493;-77
2023/10/03 02:43:10;;;;;;;20.57;10.33;;;;;;;;;;5034082;28;20565;-78
2023/10/03 02:45:38;;;;;;;22.73;11.60;;;;;;;;;;5034363;28;20909;-77
2023/10/03 02:48:14;;;;;;;20.30;10.03;;;;;;;;;;5034193;28;20466;-78
2023/10/03 02:50:41;;;;;;;20.87;10.00;;;;;;;;;;5034388;28;20963;-78
2023/10/03 02:53:12;;;;;;;22.70;11.30;;;;;;;;;;5035926;28;20503;-77
2023/10/03 02:55:40;;;;;;;21.50;10.67;;;;;;;;;;5053746;28;20501;-78
2023/10/03 02:58:07;;;;;;;20.27;12.27;;;;;;;;;;5053675;28;20457;-77
2023/10/03 03:00:34;;;;;;;24.00;9.63;;;;;;;;;;5054116;28;20568;-77
2023/10/03 03:03:06;;;;;;;16.07;10.10;;;;;;;;;;5053820;28;20826;-77
2023/10/03 03:05:36;;;;;;;23.13;11.33;;;;;;;;;;5053798;28;20433;-77
2023/10/03 03:08:10;;;;;;;18.17;11.00;;;;;;;;;;5053962;28;20437;-77
2023/10/03 03:10:40;;;;;;;20.40;9.47;;;;;;;;;;5037513;28;20485;-77
2023/10/03 03:13:08;;;;;;;20.40;10.73;;;;;;;;;;5032534;28;20449;-77
2023/10/03 03:15:37;;;;;;;18.70;10.13;;;;;;;;;;5032735;28;20818;-78
2023/10/03 03:18:05;;;;;;;19.93;10.47;;;;;;;;;;5032320;28;20460;-77
2023/10/03 03:20:37;;;;;;;18.57;10.53;;;;;;;;;;5032276;28;20508;-77
2023/10/03 03:23:09;;;;;;;21.63;11.43;;;;;;;;;;5032697;28;20768;-78
2023/10/03 03:25:37;;;;;;;22.30;10.43;;;;;;;;;;5032771;28;20438;-77
2023/10/03 03:28:12;;;;;;;20.10;10.63;;;;;;;;;;5031945;28;20515;-77
2023/10/03 03:30:45;;;;;;;25.07;11.67;;;;;;;;;;5032285;28;20514;-77
2023/10/03 03:33:12;;;;;;;17.50;10.07;;;;;;;;;;5032627;28;20965;-77
2023/10/03 03:35:40;;;;;;;21.20;10.87;;;;;;;;;;5032084;28;20453;-77
2023/10/03 03:38:15;;;;;;;18.50;9.90;;;;;;;;;;5032243;28;20458;-77
2023/10/03 03:40:45;;;;;;;22.73;9.73;;;;;;;;;;5031842;28;20533;-77
2023/10/03 03:43:13;;;;;;;17.37;9.50;;;;;;;;;;5031857;28;20964;-77
2023/10/03 03:45:41;;;;;;;22.00;11.40;;;;;;;;;;5031862;28;20454;-77
2023/10/03 03:48:09;;;;;;;15.50;9.23;;;;;;;;;;5031800;28;20499;-78
2023/10/03 03:50:37;;;;;;;19.63;10.70;;;;;;;;;;5031909;28;20474;-78
2023/10/03 03:53:06;;;;;;;18.20;10.13;;;;;;;;;;5032190;28;20936;-78
2023/10/03 03:55:36;;;;;;;17.27;10.10;;;;;;;;;;5032274;28;20932;-78
2023/10/03 03:58:05;;;;;;;18.43;9.23;;;;;;;;;;5031944;28;20462;-78
2023/10/03 04:00:32;;;;;;;21.43;8.67;;;;;;;;;;5031743;28;20497;-77
2023/10/03 04:03:05;;;;;;;18.17;9.03;;;;;;;;;;5031788;28;20940;-78
2023/10/03 04:05:33;;;;;;;15.40;9.70;;;;;;;;;;5032095;28;20434;-78
2023/10/03 04:08:00;;;;;;;18.80;9.87;;;;;;;;;;5031788;28;20456;-78
2023/10/03 04:10:27;;;;;;;20.00;9.73;;;;;;;;;;5032162;28;20470;-78
2023/10/03 04:12:56;;;;;;;17.63;9.27;;;;;;;;;;5031846;28;20481;-77
2023/10/03 04:15:24;;;;;;;18.10;10.10;;;;;;;;;;5032069;28;20453;-78
2023/10/03 04:17:51;;;;;;;21.27;10.77;;;;;;;;;;5031360;28;21005;-78
2023/10/03 04:20:30;;;;;;;17.30;10.03;;;;;;;;;;5031103;28;20485;-78
2023/10/03 04:22:58;;;;;;;21.87;11.50;;;;;;;;;;5034800;28;20855;-77
2023/10/03 04:25:25;;;;;;;17.07;10.40;;;;;;;;;;5047244;28;20471;-77
2023/10/03 04:27:53;;;;;;;18.80;9.87;;;;;;;;;;5055236;28;20508;-78
2023/10/03 04:30:25;;;;;;;16.10;10.00;;;;;;;;;;5054925;28;20467;-78
2023/10/03 04:32:53;;;;;;;18.00;10.27;;;;;;;;;;5055011;28;20536;-77
2023/10/03 04:35:20;;;;;;;19.50;9.87;;;;;;;;;;5054935;28;20445;-78
2023/10/03 04:37:51;;;;;;;19.30;11.13;;;;;;;;;;5055036;28;20965;-77
2023/10/03 04:40:22;;;;;;;21.63;10.50;;;;;;;;;;5054647;28;20560;-78
2023/10/03 04:42:49;;;;;;;18.83;10.43;;;;;;;;;;5054934;28;20433;-77
2023/10/03 04:45:19;;;;;;;23.53;8.63;;;;;;;;;;5054682;28;20535;-77
2023/10/03 04:47:48;;;;;;;19.53;9.80;;;;;;;;;;5055654;28;20521;-78
2023/10/03 04:50:19;;;;;;;16.90;9.07;;;;;;;;;;5055616;28;20491;-77
2023/10/03 04:52:48;;;;;;;18.63;9.57;;;;;;;;;;5056758;28;20455;-78
2023/10/03 04:55:16;;;;;;;14.87;9.60;;;;;;;;;;5055577;28;20501;-78
2023/10/03 04:57:44;;;;;;;15.20;8.27;;;;;;;;;;5055816;28;20457;-77
2023/10/03 05:00:15;;;;;;;22.03;10.13;;;;;;;;;;5055257;28;20492;-78
2023/10/03 05:02:43;;;;;;;20.57;10.67;;;;;;;;;;5055731;28;20456;-78
2023/10/03 05:05:12;;;;;;;20.57;10.93;;;;;;;;;;5055493;28;20485;-78
2023/10/03 05:07:39;;;;;;;23.67;10.87;;;;;;;;;;5055490;28;20457;-77
2023/10/03 05:10:07;;;;;;;19.70;10.60;;;;;;;;;;5053457;28;20451;-77
2023/10/03 05:12:34;;;;;;;23.60;9.97;;;;;;;;;;5034946;28;20464;-77
2023/10/03 05:15:02;;;;;;;24.03;9.87;;;;;;;;;;5035051;28;20545;-77
2023/10/03 05:17:30;;;;;;;15.27;8.70;;;;;;;;;;5034922;28;20458;-77
2023/10/03 05:19:58;;;;;;;15.57;9.30;;;;;;;;;;5034533;28;20538;-77
2023/10/03 05:22:28;;;;;;;19.37;9.50;;;;;;;;;;5033997;28;20462;-78
2023/10/03 05:24:56;;;;;;;18.13;8.93;;;;;;;;;;5034394;28;20453;-77
2023/10/03 05:27:23;;;;;;;18.23;9.13;;;;;;;;;;5034085;28;20518;-77
2023/10/03 05:29:51;;;;;;;21.93;10.13;;;;;;;;;;5034422;28;20458;-77
2023/10/03 05:32:21;;;;;;;17.70;8.90;;;;;;;;;;5046122;28;20460;-77
2023/10/03 05:34:48;;;;;;;12.70;8.80;;;;;;;;;;5117500;28;20432;-77
2023/10/03 05:37:16;;;;;;;20.83;9.90;;;;;;;;;;5107130;28;20454;-77
2023/10/03 05:39:45;;;;;;;17.27;9.40;;;;;;;;;;5041476;28;20546;-78
2023/10/03 05:42:13;;;;;;;19.83;9.40;;;;;;;;;;5034297;28;20505;-77
2023/10/03 05:44:40;;;;;;;16.17;9.20;;;;;;;;;;5048580;28;20467;-77
2023/10/03 05:47:07;;;;;;;14.73;7.40;;;;;;;;;;5053652;28;20459;-78
2023/10/03 05:49:34;;;;;;;16.23;8.23;;;;;;;;;;5053677;28;20560;-77
2023/10/03 05:52:02;;;;;;;18.63;8.87;;;;;;;;;;5053582;28;20475;-78
2023/10/03 05:54:30;;;;;;;15.20;9.00;;;;;;;;;;5047177;28;20877;-80
2023/10/03 05:56:59;;;;;;;15.60;8.00;;;;;;;;;;5046507;28;20452;-80
2023/10/03 05:59:27;;;;;;;16.13;8.07;;;;;;;;;;5044186;28;20454;-79
2023/10/03 06:01:54;;;;;;;15.10;8.67;;;;;;;;;;5042923;28;20926;-79
2023/10/03 06:04:21;;;;;;;15.83;9.20;;;;;;;;;;5058967;28;20809;-79
2023/10/03 06:06:49;;;;;;;15.37;8.20;;;;;;;;;;5055324;28;20877;-80
2023/10/03 06:09:17;;;;;;;14.70;8.40;;;;;;;;;;5043684;28;20544;-80
2023/10/03 06:11:44;;;;;;;16.20;8.73;;;;;;;;;;5042321;28;20477;-80
2023/10/03 06:14:14;;;;;;;16.83;6.77;;;;;;;;;;5053435;28;20461;-80
2023/10/03 06:16:41;;;;;;;13.80;7.50;;;;;;;;;;5058230;28;20465;-80
2023/10/03 06:19:08;;;;;;;12.50;7.20;;;;;;;;;;5043384;28;20480;-80
2023/10/03 06:21:35;;;;;;;11.43;5.27;;;;;;;;;;5076158;28;20508;-80
2023/10/03 06:24:03;;;;;;;11.60;7.17;;;;;;;;;;5047652;28;20475;-80
2023/10/03 06:26:30;;;;;;;9.73;5.17;;;;;;;;;;5070293;28;20464;-80
2023/10/03 06:28:57;;;;;;;11.27;6.80;;;;;;;;;;5046648;28;20459;-80
2023/10/03 06:31:26;;;;;;;12.63;6.57;;;;;;;;;;5035932;28;20466;-80
2023/10/03 06:33:52;;;;;;;12.40;7.23;;;;;;;;;;5035960;28;20458;-80
2023/10/03 06:36:19;;;;;;;10.47;6.00;;;;;;;;;;5044298;28;20948;-80
2023/10/03 06:38:46;;;;;;;9.10;5.47;;;;;;;;;;5044159;28;20469;-80
2023/10/03 06:41:19;;;;;;;15.10;5.47;;;;;;;;;;5044501;28;20504;-80
2023/10/03 06:43:46;;;;;;;9.43;6.27;;;;;;;;;;5044208;28;20461;-80
2023/10/03 06:46:15;;;;;;;9.13;5.47;;;;;;;;;;5037228;28;20842;-80
2023/10/03 06:48:44;;;;;;;6.73;4.43;;;;;;;;;;5047303;28;20469;-80
2023/10/03 06:51:12;;;;;;;12.43;5.20;;;;;;;;;;5053100;28;20540;-79
2023/10/03 06:53:41;;;;;;;11.27;7.47;;;;;;;;;;5059761;28;20505;-80
2023/10/03 06:56:08;;;;;;;9.63;6.60;;;;;;;;;;5077557;28;20454;-80
2023/10/03 06:58:35;;;;;;;14.40;7.37;;;;;;;;;;5042166;28;20477;-80
2023/10/03 07:01:03;;;;;;;8.80;6.20;;;;;;;;;;5080267;28;20490;-80
2023/10/03 07:03:30;;;;;;;11.67;5.00;;;;;;;;;;5064998;28;20919;-80
2023/10/03 07:05:59;;;;;;;11.10;6.27;;;;;;;;;;5077677;28;20553;-80
2023/10/03 07:08:27;;;;;;;10.20;5.23;;;;;;;;;;5043810;28;20453;-80
2023/10/03 07:10:56;;;;;;;9.23;4.73;;;;;;;;;;5042656;28;20563;-81
2023/10/03 07:13:25;;;;;;;9.40;5.33;;;;;;;;;;5050051;28;20462;-80
2023/10/03 07:15:53;;;;;;;6.83;4.40;;;;;;;;;;5086355;28;20564;-80
2023/10/03 07:18:22;;;;;;;9.33;5.20;;;;;;;;;;5055969;28;20467;-80
2023/10/03 07:20:49;;;;;;;6.37;4.33;;;;;;;;;;5117953;28;20492;-80
2023/10/03 07:23:19;;;;;;;17.03;6.20;;;;;;;;;;5041321;28;20529;-79
2023/10/03 07:25:46;;;;;;;8.37;5.37;;;;;;;;;;5047402;28;20461;-79
2023/10/03 07:28:14;;;;;;;8.90;6.23;;;;;;;;;;5044873;28;20814;-79
2023/10/03 07:30:43;;;;;;;9.37;6.60;;;;;;;;;;5069166;28;20469;-79
2023/10/03 07:33:11;;;;;;;15.43;7.63;;;;;;;;;;5112477;28;20454;-79
2023/10/03 07:35:42;;;;;;;8.57;4.73;;;;;;;;;;5042217;28;20975;-79
2023/10/03 07:38:11;;;;;;;12.27;4.80;;;;;;;;;;5042357;28;20913;-79
2023/10/03 07:40:40;;;;;;;7.73;4.80;;;;;;;;;;5044407;28;20811;-79
2023/10/03 07:43:09;;;;;;;9.60;4.73;;;;;;;;;;5070932;28;20528;-79
2023/10/03 07:45:37;;;;;;;7.00;4.77;;;;;;;;;;5039276;28;20540;-79
2023/10/03 07:48:05;;;;;;;7.30;4.20;;;;;;;;;;5040975;28;20555;-79
2023/10/03 07:50:32;;;;;;;5.93;3.90;;;;;;;;;;5037122;28;20590;-79
2023/10/03 07:53:00;;;;;;;10.33;5.20;;;;;;;;;;5045481;28;20464;-79
2023/10/03 07:55:27;;;;;;;5.90;4.07;;;;;;;;;;5065360;28;20466;-79
2023/10/03 07:57:59;;;;;;;7.43;5.10;;;;;;;;;;5073637;28;20462;-79
2023/10/03 08:00:26;;;;;;;9.97;4.10;;;;;;;;;;5049923;28;20794;-79
2023/10/03 08:02:55;;;;;;;5.93;4.10;;;;;;;;;;5117154;28;20489;-79
2023/10/03 08:05:27;;;;;;;12.30;5.50;;;;;;;;;;5091475;28;20484;-79
2023/10/03 08:07:54;;;;;;;7.23;3.90;;;;;;;;;;5091089;28;20803;-79
2023/10/03 08:10:21;;;;;;;8.97;5.00;;;;;;;;;;5045764;28;20472;-79
2023/10/03 08:12:52;;;;;;;9.60;4.60;;;;;;;;;;5073969;28;20453;-79
2023/10/03 08:15:23;;;;;;;7.70;4.33;;;;;;;;;;5045966;28;20452;-79
2023/10/03 08:17:53;;;;;;;7.33;4.20;;;;;;;;;;5104301;28;20500;-79
2023/10/03 08:20:20;;;;;;;7.47;4.60;;;;;;;;;;5035694;28;20581;-79
2023/10/03 08:22:51;;;;;;;7.20;4.40;;;;;;;;;;5041772;28;20500;-79
2023/10/03 08:25:19;;;;;;;8.17;4.50;;;;;;;;;;5044350;28;20480;-79
2023/10/03 08:27:47;;;;;;;9.10;4.97;;;;;;;;;;5044620;28;20952;-80
2023/10/03 08:30:26;;;;;;;7.63;5.00;;;;;;;;;;5045872;28;20498;-79
2023/10/03 08:32:56;;;;;;;7.50;4.90;;;;;;;;;;5046855;28;20449;-79
2023/10/03 08:35:34;;;;;;;6.80;4.50;;;;;;;;;;5034992;28;20450;-80
2023/10/03 08:38:04;;;;;;;12.00;5.27;;;;;;;;;;5041781;28;20882;-79
2023/10/03 08:40:32;;;;;;;8.03;4.83;;;;;;;;;;5042119;28;20519;-79
2023/10/03 08:43:02;;;;;;;5.93;4.00;;;;;;;;;;5077743;28;20494;-79
2023/10/03 08:45:31;;;;;;;8.60;4.80;;;;;;;;;;5034780;28;20461;-79
2023/10/03 08:48:05;;;;;;;8.13;5.30;;;;;;;;;;5043895;28;20453;-80
2023/10/03 08:50:36;;;;;;;7.77;4.90;;;;;;;;;;5031604;28;20487;-79
2023/10/03 08:53:15;;;;;;;8.33;4.47;;;;;;;;;;5107613;28;20445;-79
2023/10/03 08:55:43;;;;;;;8.83;4.87;;;;;;;;;;5041663;28;20444;-79
2023/10/03 08:58:13;;;;;;;8.70;5.10;;;;;;;;;;5039562;28;20465;-80
2023/10/03 09:00:42;;;;;;;8.20;4.53;;;;;;;;;;5076224;28;20514;-79
2023/10/03 09:03:12;;;;;;;11.93;5.33;;;;;;;;;;5046591;28;20486;-79
2023/10/03 09:05:41;;;;;;;7.97;4.97;;;;;;;;;;5077639;28;20458;-79
2023/10/03 09:08:09;;;;;;;7.70;5.20;;;;;;;;;;5045973;28;20545;-80
2023/10/03 09:10:43;;;;;;;10.37;5.27;;;;;;;;;;5050877;28;20893;-79
2023/10/03 09:13:23;;;;;;;7.17;4.43;;;;;;;;;;5049763;28;20453;-79
2023/10/03 09:15:50;;;;;;;6.33;4.90;;;;;;;;;;5046744;28;20509;-80
2023/10/03 09:18:21;;;;;;;7.10;4.60;;;;;;;;;;5047134;28;20576;-79
2023/10/03 09:20:49;;;;;;;8.37;4.33;;;;;;;;;;5039121;28;20481;-79
2023/10/03 09:23:18;;;;;;;6.13;4.10;;;;;;;;;;5049480;28;20821;-79
2023/10/03 09:25:52;;;;;;;6.73;4.17;;;;;;;;;;5079416;28;20461;-78
2023/10/03 09:28:27;;;;;;;11.20;5.30;;;;;;;;;;5054367;28;20468;-78
2023/10/03 09:30:56;;;;;;;10.30;5.50;;;;;;;;;;5051587;28;20472;-81
2023/10/03 09:33:25;;;;;;;8.17;4.27;;;;;;;;;;5053301;28;20462;-81
2023/10/03 09:36:00;;;;;;;8.47;5.70;;;;;;;;;;5093519;28;20457;-79
2023/10/03 09:38:42;;;;;;;8.97;5.20;;;;;;;;;;5041917;28;20487;-82
2023/10/03 09:41:16;;;;;;;8.97;5.23;;;;;;;;;;5050829;28;20470;-81
2023/10/03 09:43:44;;;;;;;11.40;6.00;;;;;;;;;;5052677;28;20477;-79
2023/10/03 09:46:12;;;;;;;9.27;5.43;;;;;;;;;;5085105;28;20509;-79
2023/10/03 09:48:41;;;;;;;9.10;5.37;;;;;;;;;;5050229;28;20840;-82
2023/10/03 09:51:13;;;;;;;8.23;5.00;;;;;;;;;;5050410;28;20533;-82
2023/10/03 09:53:40;;;;;;;8.67;5.73;;;;;;;;;;5101225;28;20453;-81
2023/10/03 09:56:08;;;;;;;9.10;5.73;;;;;;;;;;5051781;28;20545;-79
2023/10/03 09:58:35;;;;;;;9.70;5.00;;;;;;;;;;5050958;28;20573;-80
2023/10/03 10:01:03;;;;;;;7.77;5.13;;;;;;;;;;5051888;28;20569;-80
2023/10/03 10:03:33;;;;;;;10.87;5.43;;;;;;;;;;5084261;28;20498;-80
2023/10/03 10:06:13;;;;;;;9.03;5.40;;;;;;;;;;5050652;28;20457;-80
2023/10/03 10:08:46;;;;;;;8.90;6.00;;;;;;;;;;5075065;28;20837;-80
2023/10/03 10:11:14;;;;;;;10.73;6.03;;;;;;;;;;5050309;28;20534;-80
2023/10/03 10:14:01;;;;;;;16.70;7.00;;;;;;;;;;5053299;28;20445;-80
2023/10/03 10:16:28;;;;;;;8.67;5.30;;;;;;;;;;5037323;28;20433;-81
2023/10/03 10:18:59;;;;;;;8.60;6.10;;;;;;;;;;5111112;28;20493;-80
2023/10/03 10:21:30;;;;;;;8.87;6.00;;;;;;;;;;5032673;28;20488;-80
2023/10/03 10:24:16;;;;;;;12.70;7.97;;;;;;;;;;5049678;28;20537;-80
2023/10/03 10:26:48;;;;;;;11.97;7.70;;;;;;;;;;5045269;28;20438;-81
2023/10/03 10:29:19;;;;;;;8.33;6.23;;;;;;;;;;5041999;28;20465;-80
2023/10/03 10:31:49;;;;;;;10.17;6.30;;;;;;;;;;5051693;28;20977;-80
2023/10/03 10:34:37;;;;;;;10.53;7.10;;;;;;;;;;5053083;28;20454;-80
2023/10/03 10:37:09;;;;;;;9.93;6.90;;;;;;;;;;5055329;28;20445;-81
2023/10/03 10:40:17;;;;;;;10.37;6.60;;;;;;;;;;5077197;28;20458;-81
2023/10/03 10:42:57;;;;;;;10.67;6.03;;;;;;;;;;4980561;28;20496;-80
2023/10/03 10:45:25;;;;;;;11.20;8.20;;;;;;;;;;4982606;28;20476;-81
2023/10/03 10:47:54;;;;;;;15.37;7.93;;;;;;;;;;5028527;28;20452;-80
2023/10/03 10:50:25;;;;;;;10.47;7.17;;;;;;;;;;5048485;28;20482;-80
2023/10/03 10:52:56;;;;;;;10.00;6.20;;;;;;;;;;5048458;28;20445;-81
2023/10/03 10:55:23;;;;;;;9.00;6.70;;;;;;;;;;5048766;28;20480;-80
2023/10/03 10:58:02;;;;;;;10.37;6.70;;;;;;;;;;5045624;28;20859;-80
2023/10/03 11:00:30;;;;;;;12.70;7.30;;;;;;;;;;5029595;28;20469;-80
2023/10/03 11:03:00;;;;;;;9.50;6.70;;;;;;;;;;5037329;28;20516;-80
2023/10/03 11:05:30;;;;;;;12.27;6.77;;;;;;;;;;5040944;28;20459;-80
2023/10/03 11:07:58;;;;;;;12.93;6.70;;;;;;;;;;5071119;28;20446;-78
2023/10/03 11:10:25;;;;;;;11.90;7.27;;;;;;;;;;5065792;28;20541;-78
2023/10/03 11:12:59;;;;;;;10.17;6.40;;;;;;;;;;5031870;28;20935;-78
2023/10/03 11:15:27;;;;;;;17.13;6.90;;;;;;;;;;5023936;28;20468;-78
2023/10/03 11:17:54;;;;;;;14.53;7.60;;;;;;;;;;5047967;28;20449;-78
2023/10/03 11:20:21;;;;;;;9.80;6.80;;;;;;;;;;5032081;28;20991;-79
2023/10/03 11:22:49;;;;;;;9.20;6.47;;;;;;;;;;5046716;28;20519;-78
2023/10/03 11:25:19;;;;;;;11.37;6.60;;;;;;;;;;5051400;28;20457;-78
2023/10/03 11:27:46;;;;;;;9.47;6.47;;;;;;;;;;5099878;28;20823;-78
2023/10/03 11:30:19;;;;;;;8.60;6.30;;;;;;;;;;5038480;28;20522;-79
2023/10/03 11:32:46;;;;;;;13.33;7.53;;;;;;;;;;5032885;28;20450;-78
2023/10/03 11:35:17;;;;;;;8.83;6.67;;;;;;;;;;5032507;28;20829;-79
2023/10/03 11:37:45;;;;;;;13.50;6.60;;;;;;;;;;5033180;28;20460;-78
2023/10/03 11:40:14;;;;;;;9.40;6.10;;;;;;;;;;5033338;28;20482;-79
2023/10/03 11:42:49;;;;;;;11.13;6.50;;;;;;;;;;5032824;28;20490;-78
2023/10/03 11:45:18;;;;;;;9.90;6.57;;;;;;;;;;5033360;28;20461;-78
2023/10/03 11:47:57;;;;;;;9.67;5.80;;;;;;;;;;5032264;28;20453;-79
2023/10/03 11:50:25;;;;;;;10.77;6.23;;;;;;;;;;5032046;28;20474;-78
2023/10/03 11:52:54;;;;;;;18.70;7.23;;;;;;;;;;5039859;28;20546;-78
2023/10/03 11:55:21;;;;;;;13.43;7.00;;;;;;;;;;5035538;28;20465;-79
2023/10/03 11:57:49;;;;;;;15.40;7.87;;;;;;;;;;5044141;28;20460;-78
2023/10/03 12:00:16;;;;;;;9.40;6.17;;;;;;;;;;5040786;28;20482;-79
2023/10/03 12:02:45;;;;;;;11.87;6.40;;;;;;;;;;5031738;28;20531;-78
2023/10/03 12:05:12;;;;;;;9.70;6.17;;;;;;;;;;5049262;28;20457;-78
2023/10/03 12:07:41;;;;;;;10.13;6.67;;;;;;;;;;5031800;28;20464;-79
2023/10/03 12:10:10;;;;;;;7.53;5.70;;;;;;;;;;5074641;28;20552;-77
2023/10/03 12:12:38;;;;;;;12.90;6.23;;;;;;;;;;5038048;28;20461;-78
2023/10/03 12:15:12;;;;;;;9.33;7.30;;;;;;;;;;5046450;28;20453;-78
2023/10/03 12:17:39;;;;;;;12.67;7.77;;;;;;;;;;5057398;28;20458;-78
2023/10/03 12:20:10;;;;;;;12.20;7.27;;;;;;;;;;5041272;28;20817;-79
2023/10/03 12:22:39;;;;;;;11.47;6.70;;;;;;;;;;5032312;28;20511;-78
2023/10/03 12:25:08;;;;;;;9.83;6.30;;;;;;;;;;5032011;28;20450;-79
2023/10/03 12:27:35;;;;;;;9.83;6.60;;;;;;;;;;5032286;28;20465;-78
2023/10/03 12:30:04;;;;;;;9.67;6.87;;;;;;;;;;5040847;28;20466;-78
2023/10/03 12:32:34;;;;;;;10.87;6.60;;;;;;;;;;5059863;28;20827;-79
2023/10/03 12:35:01;;;;;;;11.13;6.07;;;;;;;;;;5053844;28;20511;-79
2023/10/03 12:37:29;;;;;;;10.30;6.60;;;;;;;;;;5033127;28;20465;-79
2023/10/03 12:40:01;;;;;;;12.50;6.23;;;;;;;;;;5039589;28;20452;-79
2023/10/03 12:42:28;;;;;;;13.80;6.23;;;;;;;;;;5075216;28;20977;-78
2023/10/03 12:44:56;;;;;;;9.33;7.17;;;;;;;;;;5044787;28;20464;-79
2023/10/03 12:47:24;;;;;;;14.73;7.23;;;;;;;;;;5037940;28;20461;-78
2023/10/03 12:49:52;;;;;;;16.30;8.43;;;;;;;;;;5102731;28;20903;-77
2023/10/03 12:52:20;;;;;;;10.90;6.20;;;;;;;;;;5055719;28;20469;-78
2023/10/03 12:54:48;;;;;;;8.00;5.90;;;;;;;;;;5061212;28;20457;-78
2023/10/03 12:57:15;;;;;;;10.10;7.40;;;;;;;;;;5034233;28;20456;-78
2023/10/03 12:59:44;;;;;;;14.17;7.20;;;;;;;;;;5033246;28;20959;-78
2023/10/03 13:02:14;;;;;;;14.10;8.33;;;;;;;;;;5040991;28;20488;-78
2023/10/03 13:04:42;;;;;;;12.60;5.93;;;;;;;;;;5040977;28;20907;-77
2023/10/03 13:07:12;;;;;;;10.90;7.00;;;;;;;;;;5032776;28;20814;-78
2023/10/03 13:09:39;;;;;;;11.03;6.93;;;;;;;;;;5040708;28;20848;-77
2023/10/03 13:12:07;;;;;;;9.17;6.80;;;;;;;;;;5040980;28;20474;-77
2023/10/03 13:14:34;;;;;;;9.73;6.93;;;;;;;;;;5061201;28;20464;-78
2023/10/03 13:17:01;;;;;;;10.17;6.57;;;;;;;;;;5082468;28;20458;-78
2023/10/03 13:19:29;;;;;;;13.10;6.77;;;;;;;;;;5100730;28;20831;-77
2023/10/03 13:21:56;;;;;;;7.97;5.70;;;;;;;;;;5033059;28;20538;-77
2023/10/03 13:24:25;;;;;;;10.67;5.67;;;;;;;;;;5054488;28;20489;-78
2023/10/03 13:26:53;;;;;;;10.20;5.90;;;;;;;;;;5082217;28;20463;-78
2023/10/03 13:29:20;;;;;;;9.33;6.40;;;;;;;;;;5043367;28;20820;-78
2023/10/03 13:31:47;;;;;;;9.80;6.13;;;;;;;;;;5032486;28;20466;-75
2023/10/03 13:34:14;;;;;;;10.03;5.97;;;;;;;;;;5031826;28;20497;-75
2023/10/03 13:36:41;;;;;;;8.50;5.90;;;;;;;;;;5032205;28;20485;-76
2023/10/03 13:39:12;;;;;;;10.30;7.10;;;;;;;;;;5032518;28;20460;-76
2023/10/03 13:41:42;;;;;;;11.10;6.13;;;;;;;;;;5032065;28;20482;-76
2023/10/03 13:44:11;;;;;;;8.87;6.23;;;;;;;;;;5031527;28;20864;-76
2023/10/03 13:46:38;;;;;;;11.17;7.03;;;;;;;;;;5031394;28;20464;-75
2023/10/03 13:49:06;;;;;;;13.07;6.57;;;;;;;;;;5031261;28;20465;-76
2023/10/03 13:51:34;;;;;;;8.00;5.23;;;;;;;;;;5031515;28;20837;-75
2023/10/03 13:54:03;;;;;;;9.80;6.33;;;;;;;;;;5030924;28;20442;-76
2023/10/03 13:56:30;;;;;;;9.43;6.00;;;;;;;;;;5031603;28;20549;-75
2023/10/03 13:58:58;;;;;;;7.47;4.93;;;;;;;;;;5031233;28;20446;-75
2023/10/03 14:01:26;;;;;;;10.20;5.17;;;;;;;;;;5031160;28;20466;-76
2023/10/03 14:03:53;;;;;;;8.43;5.30;;;;;;;;;;5031487;28;20485;-76
2023/10/03 14:06:20;;;;;;;9.10;5.67;;;;;;;;;;5031030;28;20812;-76
2023/10/03 14:08:48;;;;;;;11.87;4.70;;;;;;;;;;5031780;28;20826;-76
2023/10/03 14:11:20;;;;;;;6.60;4.33;;;;;;;;;;5031244;28;20473;-76
2023/10/03 14:13:50;;;;;;;6.10;4.13;;;;;;;;;;5030970;28;20453;-75
2023/10/03 14:16:21;;;;;;;11.20;5.20;;;;;;;;;;5041845;28;20457;-76
2023/10/03 14:18:48;;;;;;;7.77;4.67;;;;;;;;;;5117013;23;20536;-77
2023/10/03 14:21:16;;;;;;;6.93;4.93;;;;;;;;;;5119189;27;20470;-77
2023/10/03 14:23:43;;;;;;;7.23;4.50;;;;;;;;;;5121589;27;20504;-78
2023/10/03 14:26:10;;;;;;;9.00;4.60;;;;;;;;;;5123702;27;20448;-78
2023/10/03 14:28:37;;;;;;;6.33;4.80;;;;;;;;;;5129907;27;20452;-78
2023/10/03 14:31:05;;;;;;;7.90;4.77;;;;;;;;;;5126946;27;20468;-78
2023/10/03 14:33:33;;;;;;;7.57;3.83;;;;;;;;;;5115191;28;20454;-78
2023/10/03 14:36:01;;;;;;;6.67;4.60;;;;;;;;;;5124083;27;20974;-79
2023/10/03 14:38:28;;;;;;;8.17;3.97;;;;;;;;;;5123862;27;20453;-78
2023/10/03 14:40:57;;;;;;;6.23;3.90;;;;;;;;;;5124167;27;20854;-78
2023/10/03 14:43:24;;;;;;;8.27;4.83;;;;;;;;;;5118297;27;20527;-78